AS2712 / N623QX 7700 Squawk Report (20th of January, 2020)

Time Lat Lon Altitude Heading Speed Vertical Rate
2020-01-20 18:53:27 GMT 43.565018 -116.218117 0 295 11 0
2020-01-20 18:51:56 GMT 43.567841 -116.229919 2,575 115 114 -64
2020-01-20 18:51:47 GMT 43.570038 -116.236435 2,625 114 134 -576
2020-01-20 18:51:41 GMT 43.572052 -116.242317 2,725 115 133 -640
2020-01-20 18:51:36 GMT 43.572849 -116.244637 2,750 115 133 -640
2020-01-20 18:51:29 GMT 43.574711 -116.250198 2,825 115 132 -704
2020-01-20 18:51:26 GMT 43.575546 -116.252678 2,875 115 132 -768
2020-01-20 18:51:19 GMT 43.577503 -116.258438 2,950 114 132 -768
2020-01-20 18:51:15 GMT 43.578526 -116.261513 3,000 114 133 -704
2020-01-20 18:51:09 GMT 43.581345 -116.269714 3,125 116 133 -704
2020-01-20 18:50:58 GMT 43.582996 -116.274460 3,200 115 132 -704
2020-01-20 18:50:54 GMT 43.583973 -116.277206 3,250 114 133 -768
2020-01-20 18:50:48 GMT 43.585968 -116.283318 3,350 114 134 -768
2020-01-20 18:50:44 GMT 43.586609 -116.285172 3,375 115 134 -768
2020-01-20 18:50:34 GMT 43.589375 -116.292961 3,500 114 131 -768
2020-01-20 18:50:27 GMT 43.592010 -116.301079 3,625 115 129 -768
2020-01-20 18:50:16 GMT 43.594070 -116.306953 3,700 115 127 -640
2020-01-20 18:50:12 GMT 43.594822 -116.309120 3,725 115 127 -704
2020-01-20 18:50:02 GMT 43.597240 -116.316505 3,850 113 125 -576
2020-01-20 18:49:55 GMT 43.599709 -116.324089 3,950 113 125 -640
2020-01-20 18:49:41 GMT 43.602222 -116.331940 4,100 113 125 -832
2020-01-20 18:49:31 GMT 43.604691 -116.339531 4,200 114 130 -512
2020-01-20 18:49:23 GMT 43.607250 -116.347572 4,275 113 128 -256
2020-01-20 18:49:12 GMT 43.609253 -116.353912 4,300 113 129 -128
2020-01-20 18:49:09 GMT 43.609810 -116.355614 4,300 113 131 -192
2020-01-20 18:49:02 GMT 43.611969 -116.362526 4,325 113 139 -256
2020-01-20 18:48:59 GMT 43.612381 -116.363800 4,325 113 140 -448
2020-01-20 18:48:49 GMT 43.615082 -116.372299 4,400 114 138 -576
2020-01-20 18:48:41 GMT 43.617371 -116.379326 4,475 113 137 -512
2020-01-20 18:48:37 GMT 43.618057 -116.381493 4,500 113 137 -512
2020-01-20 18:48:28 GMT 43.620392 -116.388969 4,575 113 136 -384
2020-01-20 18:48:17 GMT 43.623138 -116.397461 4,675 114 132 -576
2020-01-20 18:48:07 GMT 43.625687 -116.405312 4,725 113 133 -448
2020-01-20 18:47:56 GMT 43.628338 -116.413750 4,825 113 137 -704
2020-01-20 18:47:48 GMT 43.630829 -116.421608 4,900 113 145 -512
2020-01-20 18:47:35 GMT 43.633926 -116.431343 5,000 113 145 -512
2020-01-20 18:47:24 GMT 43.636810 -116.440498 5,100 113 146 -576
2020-01-20 18:47:14 GMT 43.639618 -116.449455 5,175 113 144 -512
2020-01-20 18:47:03 GMT 43.642445 -116.458611 5,275 112 149 -448
2020-01-20 18:46:53 GMT 43.645294 -116.467850 5,350 112 159 -832
2020-01-20 18:46:43 GMT 43.648216 -116.477768 5,500 111 166 -704
2020-01-20 18:46:32 GMT 43.651245 -116.488228 5,650 111 168 -704
2020-01-20 18:46:22 GMT 43.654129 -116.498894 5,700 109 177 -576
2020-01-20 18:46:11 GMT 43.657059 -116.510712 5,850 108 190 -832
2020-01-20 18:46:00 GMT 43.659992 -116.523544 5,950 106 206 -640
2020-01-20 18:45:50 GMT 43.662693 -116.537018 6,100 102 212 -704
2020-01-20 18:45:39 GMT 43.663513 -116.551590 6,250 84 222 -1024
2020-01-20 18:45:29 GMT 43.660366 -116.565468 6,500 60 230 -1600
2020-01-20 18:45:18 GMT 43.652756 -116.577400 6,700 37 239 -768
2020-01-20 18:45:08 GMT 43.641605 -116.584557 6,750 13 247 -64
2020-01-20 18:44:58 GMT 43.629913 -116.585190 6,725 350 249 128
2020-01-20 18:44:46 GMT 43.617538 -116.579201 6,750 336 249 0
2020-01-20 18:44:37 GMT 43.607063 -116.572655 6,725 336 246 64
2020-01-20 18:44:25 GMT 43.596077 -116.565140 6,750 331 246 0
2020-01-20 18:44:15 GMT 43.586163 -116.554344 6,725 312 245 192
2020-01-20 18:44:05 GMT 43.580669 -116.541397 6,725 294 242 0
2020-01-20 18:43:53 GMT 43.575596 -116.525505 6,750 294 243 0
2020-01-20 18:43:44 GMT 43.570938 -116.510727 6,750 294 244 0
2020-01-20 18:43:32 GMT 43.566097 -116.495430 6,750 294 245 -64
2020-01-20 18:43:23 GMT 43.561432 -116.480629 6,750 294 245 0
2020-01-20 18:43:12 GMT 43.556648 -116.465477 6,750 294 244 0
2020-01-20 18:43:01 GMT 43.552040 -116.450630 6,750 294 243 -192
2020-01-20 18:42:51 GMT 43.547478 -116.435783 6,850 293 243 -1152
2020-01-20 18:42:39 GMT 43.542709 -116.420013 7,075 293 243 -1408
2020-01-20 18:42:30 GMT 43.538212 -116.404793 7,375 293 242 -1472
2020-01-20 18:42:19 GMT 43.533836 -116.389946 7,600 293 241 -1344
2020-01-20 18:42:08 GMT 43.529343 -116.374855 7,800 293 244 -960
2020-01-20 18:41:58 GMT 43.524761 -116.359337 7,925 293 249 -448
2020-01-20 18:41:46 GMT 43.519775 -116.342278 7,975 292 258 -256
2020-01-20 18:41:37 GMT 43.515244 -116.326691 8,000 292 269 -256
2020-01-20 18:41:26 GMT 43.510391 -116.309830 8,075 292 279 -704
2020-01-20 18:41:15 GMT 43.505302 -116.292114 8,275 292 284 -1600
2020-01-20 18:41:05 GMT 43.500088 -116.274132 8,600 292 285 -1856
2020-01-20 18:40:54 GMT 43.495056 -116.256813 8,900 292 285 -1920
2020-01-20 18:40:44 GMT 43.489746 -116.238609 9,250 292 285 -1792
2020-01-20 18:40:33 GMT 43.484444 -116.220703 9,550 293 287 -1664
2020-01-20 18:40:22 GMT 43.479092 -116.203049 9,800 293 291 -1344
2020-01-20 18:40:12 GMT 43.473541 -116.184830 10,025 293 295 -1408
2020-01-20 18:40:03 GMT 43.469513 -116.171669 10,225 293 297 -1792
2020-01-20 18:40:00 GMT 43.467590 -116.165413 10,350 294 297 -1856
2020-01-20 18:39:51 GMT 43.461868 -116.147331 10,625 294 299 -1600
2020-01-20 18:39:43 GMT 43.458141 -116.135818 10,800 295 301 -1600
2020-01-20 18:39:40 GMT 43.456009 -116.129196 10,900 295 301 -1600
2020-01-20 18:39:32 GMT 43.451954 -116.116920 11,100 295 303 -1664
2020-01-20 18:39:29 GMT 43.450012 -116.110924 11,200 295 304 -1600
2020-01-20 18:39:19 GMT 43.443558 -116.091187 11,475 294 307 -1344
2020-01-20 18:39:11 GMT 43.439621 -116.078926 11,600 294 311 -960
2020-01-20 18:39:07 GMT 43.437515 -116.072472 11,650 294 314 -704
2020-01-20 18:39:01 GMT 43.433716 -116.060593 11,700 294 321 -512
2020-01-20 18:38:58 GMT 43.431290 -116.053116 11,725 294 325 -576
2020-01-20 18:38:50 GMT 43.427280 -116.040474 11,800 294 332 -704
2020-01-20 18:38:47 GMT 43.424767 -116.032761 11,850 294 337 -896
2020-01-20 18:38:40 GMT 43.420807 -116.020607 11,950 295 342 -1472
2020-01-20 18:38:35 GMT 43.417419 -116.010384 12,125 295 344 -2240
2020-01-20 18:38:29 GMT 43.413685 -115.999535 12,350 297 346 -2880
2020-01-20 18:38:25 GMT 43.409637 -115.988548 12,625 298 348 -2624
2020-01-20 18:38:18 GMT 43.405792 -115.978706 12,825 299 350 -2368
2020-01-20 18:38:13 GMT 43.401672 -115.968552 13,050 300 353 -2432
2020-01-20 18:38:08 GMT 43.397461 -115.958588 13,250 301 355 -2816
2020-01-20 18:38:03 GMT 43.392151 -115.946068 13,575 301 356 -2944
2020-01-20 18:37:58 GMT 43.388763 -115.938148 13,775 301 357 -3072
2020-01-20 18:37:54 GMT 43.384689 -115.928757 14,025 301 358 -3200
2020-01-20 18:37:47 GMT 43.379929 -115.917831 14,325 302 358 -3136
2020-01-20 18:37:43 GMT 43.375443 -115.907677 14,600 302 359 -3136
2020-01-20 18:37:36 GMT 43.369972 -115.895691 14,925 303 360 -3200
2020-01-20 18:37:26 GMT 43.361317 -115.877251 15,425 304 361 -3072
2020-01-20 18:37:16 GMT 43.350998 -115.857346 15,950 307 365 -2816
2020-01-20 18:37:05 GMT 43.340469 -115.837929 16,450 307 369 -2560
2020-01-20 18:36:55 GMT 43.329613 -115.817871 16,875 307 373 -2752
2020-01-20 18:36:44 GMT 43.318680 -115.797813 17,375 307 375 -3200
2020-01-20 18:36:33 GMT 43.307327 -115.777054 18,025 308 376 -3584
2020-01-20 18:36:23 GMT 43.296204 -115.757446 18,625 309 375 -3392
2020-01-20 18:36:13 GMT 43.285156 -115.738419 19,175 309 376 -3136
2020-01-20 18:36:02 GMT 43.273682 -115.718544 19,675 309 379 -2688
2020-01-20 18:35:52 GMT 43.262283 -115.698936 20,100 309 382 -2176
2020-01-20 18:35:45 GMT 43.255188 -115.686737 20,350 309 384 -2432
2020-01-20 18:35:41 GMT 43.249924 -115.677666 20,550 309 385 -2432
2020-01-20 18:35:35 GMT 43.244156 -115.667770 20,750 309 387 -2432
2020-01-20 18:35:31 GMT 43.239120 -115.659142 20,925 309 389 -2048
2020-01-20 18:35:24 GMT 43.231888 -115.646751 21,125 309 392 -2048
2020-01-20 18:35:20 GMT 43.227402 -115.639023 21,250 309 393 -2048
2020-01-20 18:35:14 GMT 43.220169 -115.626694 21,475 309 397 -2048
2020-01-20 18:35:10 GMT 43.215042 -115.617882 21,625 309 398 -2048
2020-01-20 18:35:03 GMT 43.207878 -115.605598 21,850 309 401 -1984
2020-01-20 18:34:59 GMT 43.202896 -115.596970 21,975 309 404 -2048
2020-01-20 18:34:53 GMT 43.195999 -115.585243 22,175 309 406 -1984
2020-01-20 18:34:49 GMT 43.190609 -115.575974 22,325 309 409 -1984
2020-01-20 18:34:43 GMT 43.183483 -115.563812 22,550 309 412 -2048
2020-01-20 18:34:38 GMT 43.178226 -115.554855 22,675 309 414 -1984
2020-01-20 18:34:31 GMT 43.169312 -115.539635 22,925 309 417 -2048
2020-01-20 18:34:28 GMT 43.165703 -115.533401 23,050 309 425 -1984
2020-01-20 18:34:21 GMT 43.157883 -115.520126 23,225 309 422 -1984
2020-01-20 18:34:17 GMT 43.152832 -115.511528 23,375 309 424 -1984
2020-01-20 18:34:11 GMT 43.144867 -115.497993 23,600 309 425 -1984
2020-01-20 18:34:07 GMT 43.140190 -115.489983 23,725 309 426 -1984
2020-01-20 18:34:00 GMT 43.131592 -115.475311 23,950 309 425 -1984
2020-01-20 18:33:57 GMT 43.127392 -115.468140 24,075 309 425 -1984
2020-01-20 18:33:49 GMT 43.117813 -115.451813 24,325 309 424 -2048
2020-01-20 18:33:46 GMT 43.114262 -115.445709 24,425 309 422 -2048
2020-01-20 18:33:39 GMT 43.105637 -115.430984 24,650 309 420 -2048
2020-01-20 18:33:35 GMT 43.101334 -115.423576 24,775 309 419 -2048
2020-01-20 18:33:28 GMT 43.093048 -115.409462 25,000 309 418 -2048
2020-01-20 18:33:25 GMT 43.088837 -115.402245 25,125 309 418 -1984
2020-01-20 18:33:15 GMT 43.076366 -115.380966 25,475 309 419 -2048
2020-01-20 18:33:07 GMT 43.066956 -115.364944 25,725 309 423 -2048
2020-01-20 18:33:04 GMT 43.063286 -115.358665 25,825 309 424 -2048
2020-01-20 18:32:56 GMT 43.054276 -115.343033 26,100 307 425 -2048
2020-01-20 18:32:53 GMT 43.050671 -115.336502 26,200 306 425 -1984
2020-01-20 18:32:46 GMT 43.042385 -115.319824 26,450 302 424 -2048
2020-01-20 18:32:43 GMT 43.039406 -115.313286 26,550 301 423 -1984
2020-01-20 18:32:35 GMT 43.029282 -115.287521 26,875 296 420 -1536
2020-01-20 18:32:25 GMT 43.023422 -115.270218 27,075 295 418 -1536
2020-01-20 18:32:22 GMT 43.021179 -115.263512 27,125 295 417 -1536
2020-01-20 18:32:14 GMT 43.014771 -115.244347 27,325 293 414 -1536
2020-01-20 18:32:11 GMT 43.012917 -115.238274 27,400 292 413 -1536
2020-01-20 18:32:01 GMT 43.006714 -115.212219 27,675 285 405 -1536
2020-01-20 18:31:53 GMT 43.003784 -115.192101 27,875 279 402 -1600
2020-01-20 18:31:50 GMT 43.003189 -115.185570 27,950 277 400 -1536
2020-01-20 18:31:40 GMT 43.002319 -115.159966 28,200 269 398 -1600
2020-01-20 18:31:29 GMT 43.004074 -115.133514 28,475 261 397 -1536
2020-01-20 18:31:19 GMT 43.008354 -115.108269 28,750 254 395 -1536
2020-01-20 18:31:08 GMT 43.015293 -115.083290 28,975 246 389 -576
2020-01-20 18:30:58 GMT 43.024292 -115.060707 29,000 238 387 -64
2020-01-20 18:30:49 GMT 43.033630 -115.043076 29,150 228 386 -1536
2020-01-20 18:30:37 GMT 43.048508 -115.022385 29,425 221 384 -2048
2020-01-20 18:30:26 GMT 43.063889 -115.006737 29,800 213 386 -2112
2020-01-20 18:30:16 GMT 43.079952 -114.994682 30,175 205 387 -2112
2020-01-20 18:30:05 GMT 43.097855 -114.985397 30,550 197 390 -2112
2020-01-20 18:29:54 GMT 43.116714 -114.979591 30,925 189 391 -2176
2020-01-20 18:29:43 GMT 43.136654 -114.977417 31,325 182 394 -2112
2020-01-20 18:29:34 GMT 43.154709 -114.978821 31,650 173 398 -2048
2020-01-20 18:29:23 GMT 43.174438 -114.983871 32,050 165 404 -2048
2020-01-20 18:29:12 GMT 43.193024 -114.992302 32,400 157 412 -2112
2020-01-20 18:29:01 GMT 43.212021 -115.004814 32,725 150 419 -1536
2020-01-20 18:28:51 GMT 43.229107 -115.019920 32,975 143 426 -896
2020-01-20 18:28:40 GMT 43.245346 -115.038414 33,000 136 434 -64
2020-01-20 18:28:29 GMT 43.260773 -115.061028 33,000 129 444 -128
2020-01-20 18:28:19 GMT 43.274002 -115.084343 33,000 127 447 64
2020-01-20 18:28:08 GMT 43.287003 -115.107719 33,000 127 447 128
2020-01-20 18:28:05 GMT 43.291443 -115.115639 33,000 127 447 -128
2020-01-20 18:28:00 GMT 43.297771 -115.126976 33,000 127 448 -64
2020-01-20 18:27:57 GMT 43.313644 -115.155434 33,000 127 447 0
2020-01-20 18:27:47 GMT 43.313644 -115.155434 33,000 127 448 -64
2020-01-20 18:27:42 GMT 43.321609 -115.169739 33,000 127 447 0
2020-01-20 18:27:39 GMT 43.324173 -115.174400 33,000 127 447 64
2020-01-20 18:27:36 GMT 43.326958 -115.179359 33,000 127 447 64
2020-01-20 18:27:27 GMT 43.338181 -115.199638 33,000 127 446 -64
2020-01-20 18:27:23 GMT 43.345139 -115.212151 33,000 127 446 64
2020-01-20 18:27:15 GMT 43.353447 -115.227097 33,000 127 447 128
2020-01-20 18:27:05 GMT 43.366482 -115.250633 33,000 127 447 -64
2020-01-20 18:26:56 GMT 43.377003 -115.269600 33,000 127 448 64
2020-01-20 18:26:52 GMT 43.384277 -115.282738 33,000 127 447 -64
2020-01-20 18:26:44 GMT 43.392792 -115.298065 33,000 127 448 -64
2020-01-20 18:26:35 GMT 43.403320 -115.317101 33,000 127 448 64
2020-01-20 18:26:30 GMT 43.412056 -115.332901 33,000 127 447 0
2020-01-20 18:26:23 GMT 43.428955 -115.363441 33,000 127 446 0
2020-01-20 18:26:12 GMT 43.432663 -115.370178 33,000 127 446 64
2020-01-20 18:26:04 GMT 43.442501 -115.387962 33,000 127 445 64
2020-01-20 18:25:57 GMT 43.453346 -115.407646 33,000 127 446 -64
2020-01-20 18:25:53 GMT 43.455688 -115.411949 33,000 127 445 -64
2020-01-20 18:25:48 GMT 43.462936 -115.424980 33,000 127 446 64
2020-01-20 18:25:43 GMT 43.468803 -115.435707 33,000 127 446 0
2020-01-20 18:25:39 GMT 43.473633 -115.444466 33,000 127 446 -128
2020-01-20 18:25:33 GMT 43.481598 -115.458900 33,000 127 446 -64
2020-01-20 18:25:26 GMT 43.490067 -115.474297 33,000 127 446 64
2020-01-20 18:25:22 GMT 43.494919 -115.483109 33,000 127 446 64
2020-01-20 18:25:18 GMT 43.500046 -115.492432 33,000 126 447 -64
2020-01-20 18:25:14 GMT 43.504787 -115.501030 33,000 126 447 128
2020-01-20 18:25:11 GMT 43.508514 -115.507828 33,000 127 447 128
2020-01-20 18:25:05 GMT 43.517731 -115.524574 33,000 127 446 0
2020-01-20 18:25:01 GMT 43.520966 -115.530441 33,000 127 446 -64
2020-01-20 18:24:57 GMT 43.526203 -115.540009 33,000 127 446 -64
2020-01-20 18:24:50 GMT 43.534069 -115.554329 33,000 127 446 0
2020-01-20 18:24:45 GMT 43.542637 -115.569893 33,000 127 446 0
2020-01-20 18:24:40 GMT 43.547058 -115.577934 33,000 127 446 64
2020-01-20 18:24:34 GMT 43.555252 -115.592781 33,000 127 446 -64
2020-01-20 18:24:30 GMT 43.559830 -115.601082 33,000 127 446 64
2020-01-20 18:24:25 GMT 43.566006 -115.612404 33,000 127 446 -64
2020-01-20 18:24:19 GMT 43.573406 -115.625870 33,000 127 446 -64
2020-01-20 18:24:12 GMT 43.583679 -115.644455 33,000 127 447 64
2020-01-20 18:24:09 GMT 43.586151 -115.649055 33,000 127 447 64
2020-01-20 18:24:04 GMT 43.599655 -115.673515 33,000 127 448 64
2020-01-20 18:23:58 GMT 43.599655 -115.673515 33,000 127 448 -64
2020-01-20 18:23:52 GMT 43.608505 -115.689438 33,000 127 448 64
2020-01-20 18:23:48 GMT 43.612602 -115.696823 33,000 127 448 -64
2020-01-20 18:23:40 GMT 43.622055 -115.713829 33,000 127 447 -64
2020-01-20 18:23:37 GMT 43.626148 -115.721352 33,000 126 447 64
2020-01-20 18:23:31 GMT 43.634949 -115.738091 33,000 125 448 128
2020-01-20 18:23:26 GMT 43.638519 -115.745056 33,000 125 448 64
2020-01-20 18:23:20 GMT 43.647903 -115.763580 33,000 125 447 -64
2020-01-20 18:23:16 GMT 43.651054 -115.769737 33,000 125 447 -128
2020-01-20 18:23:09 GMT 43.659897 -115.787018 33,000 125 446 0
2020-01-20 18:23:05 GMT 43.663441 -115.793999 33,000 125 446 -64
2020-01-20 18:22:59 GMT 43.672470 -115.811661 33,000 125 445 -128
2020-01-20 18:22:55 GMT 43.675461 -115.817619 33,000 125 445 64
2020-01-20 18:22:49 GMT 43.682384 -115.831215 33,000 125 445 -64
2020-01-20 18:22:44 GMT 43.688995 -115.844093 33,000 125 444 -128
2020-01-20 18:22:39 GMT 43.701286 -115.868294 33,000 125 444 64
2020-01-20 18:22:33 GMT 43.701286 -115.868294 33,000 125 443 128
2020-01-20 18:22:27 GMT 43.710224 -115.885880 33,000 125 444 0
2020-01-20 18:22:23 GMT 43.713528 -115.892357 33,000 125 444 -128
2020-01-20 18:22:16 GMT 43.721786 -115.908638 33,000 125 445 64
2020-01-20 18:22:13 GMT 43.725353 -115.915634 33,000 124 445 0
2020-01-20 18:22:06 GMT 43.734924 -115.934570 33,000 124 446 64
2020-01-20 18:21:56 GMT 43.750168 -115.964653 33,000 124 446 64
2020-01-20 18:21:52 GMT 43.750168 -115.964653 33,000 124 447 64
2020-01-20 18:21:45 GMT 43.758453 -115.981033 33,000 124 448 0
2020-01-20 18:21:42 GMT 43.762390 -115.988800 33,000 124 448 0
2020-01-20 18:21:34 GMT 43.772964 -116.009750 33,000 124 449 0
2020-01-20 18:21:31 GMT 43.775120 -116.013992 33,000 124 449 0
2020-01-20 18:21:24 GMT 43.783173 -116.029945 33,000 125 449 0
2020-01-20 18:21:21 GMT 43.787247 -116.037979 33,000 125 449 0
2020-01-20 18:21:13 GMT 43.797836 -116.058853 33,000 124 448 64
2020-01-20 18:21:03 GMT 43.808487 -116.080070 33,000 124 447 -64
2020-01-20 18:20:59 GMT 43.812592 -116.088211 33,000 124 447 -64
2020-01-20 18:20:52 GMT 43.821808 -116.106453 33,000 124 446 0
2020-01-20 18:20:49 GMT 43.824646 -116.112076 33,000 124 446 0
2020-01-20 18:20:41 GMT 43.835495 -116.133598 33,000 124 446 0
2020-01-20 18:20:38 GMT 43.837372 -116.137306 33,000 124 446 0
2020-01-20 18:20:31 GMT 43.846111 -116.154655 33,000 124 445 0
2020-01-20 18:20:28 GMT 43.849136 -116.160683 33,000 124 445 -64
2020-01-20 18:20:21 GMT 43.861565 -116.185455 33,000 124 444 0
2020-01-20 18:20:18 GMT 43.861565 -116.185455 33,000 124 444 -64
2020-01-20 18:20:10 GMT 43.870968 -116.204094 33,000 124 444 -64
2020-01-20 18:20:07 GMT 43.873760 -116.209717 33,000 124 444 64
2020-01-20 18:19:57 GMT 43.886169 -116.234459 33,000 124 444 -64
2020-01-20 18:19:46 GMT 43.899086 -116.260201 33,000 124 444 0
2020-01-20 18:19:36 GMT 43.910816 -116.283485 33,000 124 443 64
2020-01-20 18:19:25 GMT 43.923203 -116.308235 33,000 124 444 64
2020-01-20 18:19:15 GMT 43.935287 -116.332314 33,000 124 443 0
2020-01-20 18:19:04 GMT 43.948200 -116.358231 33,000 124 444 0
2020-01-20 18:18:54 GMT 43.959885 -116.381577 33,000 124 444 -64
2020-01-20 18:18:43 GMT 43.972965 -116.407799 33,000 124 444 64
2020-01-20 18:18:33 GMT 43.984406 -116.430740 33,000 124 444 64
2020-01-20 18:18:22 GMT 43.996704 -116.455406 33,000 124 443 -64
2020-01-20 18:18:12 GMT 44.008808 -116.479729 33,000 124 443 128
2020-01-20 18:18:01 GMT 44.021378 -116.505043 33,000 124 443 -64
2020-01-20 18:17:50 GMT 44.033901 -116.530220 33,000 124 443 -64
2020-01-20 18:17:41 GMT 44.046005 -116.554543 33,000 124 442 64
2020-01-20 18:17:30 GMT 44.058109 -116.579002 33,000 124 441 0
2020-01-20 18:17:20 GMT 44.070583 -116.604179 33,000 124 440 -64
2020-01-20 18:17:09 GMT 44.082825 -116.628815 33,000 124 439 64
2020-01-20 18:16:57 GMT 44.095688 -116.654816 33,000 124 438 0
2020-01-20 18:16:48 GMT 44.107178 -116.678062 33,000 124 440 -64
2020-01-20 18:16:36 GMT 44.119370 -116.702728 33,000 124 440 -64
2020-01-20 18:16:27 GMT 44.131382 -116.727058 33,000 124 440 64
2020-01-20 18:16:16 GMT 44.143570 -116.751770 33,000 124 438 64
2020-01-20 18:16:05 GMT 44.155930 -116.776878 33,000 124 437 -64
2020-01-20 18:15:55 GMT 44.167786 -116.800957 33,000 124 436 -128
2020-01-20 18:15:43 GMT 44.180054 -116.825806 33,000 124 435 -128
2020-01-20 18:15:34 GMT 44.192085 -116.850258 33,000 124 433 64
2020-01-20 18:15:23 GMT 44.203865 -116.874229 33,000 124 434 64
2020-01-20 18:15:14 GMT 44.213314 -116.893593 33,000 124 434 -64
2020-01-20 18:15:11 GMT 44.216015 -116.899155 33,000 124 434 -64
2020-01-20 18:15:02 GMT 44.227699 -116.922935 33,000 124 433 64
2020-01-20 18:14:50 GMT 44.239792 -116.947563 33,000 124 434 64
2020-01-20 18:14:41 GMT 44.251923 -116.972351 33,000 124 434 0
2020-01-20 18:14:30 GMT 44.263916 -116.996895 33,000 124 433 64
2020-01-20 18:14:21 GMT 44.273163 -117.015770 33,000 124 432 -128
2020-01-20 18:14:09 GMT 44.287994 -117.046181 33,000 124 432 64
2020-01-20 18:13:58 GMT 44.299435 -117.069710 33,000 124 432 -64
2020-01-20 18:13:48 GMT 44.311584 -117.094627 33,000 124 432 0
2020-01-20 18:13:37 GMT 44.323425 -117.118904 33,000 124 433 64
2020-01-20 18:13:29 GMT 44.331573 -117.135704 33,000 124 433 0
2020-01-20 18:13:26 GMT 44.335327 -117.143394 33,000 124 433 -64
2020-01-20 18:13:16 GMT 44.347504 -117.167885 33,000 125 431 64
2020-01-20 18:13:05 GMT 44.359348 -117.190964 33,000 126 429 64
2020-01-20 18:12:57 GMT 44.368286 -117.207909 33,000 126 428 0
2020-01-20 18:12:54 GMT 44.372520 -117.215813 33,000 127 428 64
2020-01-20 18:12:47 GMT 44.380463 -117.230461 33,000 127 427 0
2020-01-20 18:12:43 GMT 44.385818 -117.240074 33,000 127 427 0
2020-01-20 18:12:36 GMT 44.393051 -117.253159 33,000 127 429 -64
2020-01-20 18:12:33 GMT 44.397659 -117.261497 33,000 127 429 -64
2020-01-20 18:12:23 GMT 44.411041 -117.285530 33,000 127 430 0
2020-01-20 18:12:15 GMT 44.418869 -117.299583 33,000 127 430 0
2020-01-20 18:12:10 GMT 44.424477 -117.309669 33,000 127 429 0
2020-01-20 18:12:02 GMT 44.436157 -117.330704 33,000 127 429 64
2020-01-20 18:11:54 GMT 44.444305 -117.345375 33,000 127 429 -64
2020-01-20 18:11:51 GMT 44.449799 -117.355286 33,000 127 430 -64
2020-01-20 18:11:44 GMT 44.456863 -117.368057 33,000 127 431 -64
2020-01-20 18:11:38 GMT 44.463547 -117.380150 33,000 127 431 64
2020-01-20 18:11:33 GMT 44.469818 -117.391396 33,000 127 431 64
2020-01-20 18:11:30 GMT 44.475681 -117.402046 33,000 127 431 -64
2020-01-20 18:11:22 GMT 44.482944 -117.415176 33,000 127 431 0
2020-01-20 18:11:18 GMT 44.488811 -117.425758 33,000 127 431 -64
2020-01-20 18:11:12 GMT 44.495190 -117.437286 33,000 127 430 64
2020-01-20 18:11:09 GMT 44.501266 -117.448227 33,000 127 430 64
2020-01-20 18:11:01 GMT 44.508545 -117.461502 33,000 127 430 64
2020-01-20 18:10:57 GMT 44.515778 -117.474586 33,000 127 430 0
2020-01-20 18:10:50 GMT 44.521683 -117.485245 33,000 127 430 -64
2020-01-20 18:10:46 GMT 44.528000 -117.496750 33,000 127 430 -64
2020-01-20 18:10:40 GMT 44.533859 -117.507347 33,000 127 432 -64
2020-01-20 18:10:37 GMT 44.539970 -117.518410 33,000 127 432 -64
2020-01-20 18:10:30 GMT 44.546768 -117.530800 33,000 127 432 -64
2020-01-20 18:10:25 GMT 44.553360 -117.542725 33,000 127 432 0
2020-01-20 18:10:16 GMT 44.565994 -117.565613 33,000 127 431 64
2020-01-20 18:10:09 GMT 44.571899 -117.576401 33,000 127 431 0
2020-01-20 18:10:04 GMT 44.578003 -117.587471 33,000 127 431 -64
2020-01-20 18:09:59 GMT 44.584801 -117.599869 33,000 127 431 -64
2020-01-20 18:09:54 GMT 44.591133 -117.611320 33,000 127 430 -64
2020-01-20 18:09:48 GMT 44.597416 -117.622780 33,000 127 429 64
2020-01-20 18:09:44 GMT 44.604679 -117.635971 33,000 127 429 128
2020-01-20 18:09:38 GMT 44.609894 -117.645485 33,000 127 427 64
2020-01-20 18:09:33 GMT 44.616642 -117.657745 33,000 127 427 -64
2020-01-20 18:09:27 GMT 44.622665 -117.668808 33,000 127 427 0
2020-01-20 18:09:23 GMT 44.629990 -117.682144 33,000 127 428 0
2020-01-20 18:09:17 GMT 44.635300 -117.691826 33,000 127 428 128
2020-01-20 18:09:10 GMT 44.643036 -117.705948 33,000 127 429 -128
2020-01-20 18:09:06 GMT 44.648804 -117.716545 33,000 127 429 0
2020-01-20 18:09:00 GMT 44.655327 -117.728416 33,000 127 430 0
2020-01-20 18:08:54 GMT 44.662857 -117.742111 33,000 127 430 0
2020-01-20 18:08:51 GMT 44.668625 -117.752708 33,000 127 429 -64
2020-01-20 18:08:44 GMT 44.674694 -117.763794 33,000 127 429 64
2020-01-20 18:08:38 GMT 44.682934 -117.778862 33,000 127 429 -64
2020-01-20 18:08:34 GMT 44.686432 -117.785339 33,000 127 429 -64
2020-01-20 18:08:24 GMT 44.698807 -117.807938 33,000 127 428 64
2020-01-20 18:08:13 GMT 44.712215 -117.832520 33,000 127 427 64
2020-01-20 18:08:06 GMT 44.723053 -117.852432 33,000 127 425 64
2020-01-20 18:08:03 GMT 44.724270 -117.854698 33,000 127 425 0
2020-01-20 18:07:46 GMT 44.744381 -117.891541 33,000 127 425 -64
2020-01-20 18:07:40 GMT 44.751457 -117.904533 33,000 127 426 0
2020-01-20 18:07:31 GMT 44.762375 -117.924698 33,000 127 427 128
2020-01-20 18:07:13 GMT 44.786091 -117.968376 33,000 127 428 -64
2020-01-20 18:07:02 GMT 44.796890 -117.988258 33,000 127 428 0
2020-01-20 18:06:58 GMT 44.801922 -117.997581 33,000 127 428 -64
2020-01-20 18:06:50 GMT 44.811676 -118.015526 33,000 127 428 -64
2020-01-20 18:06:03 GMT 44.867603 -118.118973 33,000 127 428 0
2020-01-20 18:05:58 GMT 44.874573 -118.131798 33,000 127 427 0
We lost coverage of the aircraft here for a total of 9 minutes
2020-01-20 17:56:41 GMT 45.493313 -119.422462 33,000 123 428 -64
2020-01-20 17:56:34 GMT 45.499832 -119.436661 33,000 123 428 -64
2020-01-20 17:56:22 GMT 45.512924 -119.465263 33,000 123 428 -64
2020-01-20 17:56:14 GMT 45.522491 -119.486130 33,000 123 428 0
2020-01-20 17:56:00 GMT 45.536140 -119.515976 33,000 123 428 0
2020-01-20 17:55:54 GMT 45.543034 -119.531052 33,000 122 427 -64
2020-01-20 17:55:46 GMT 45.552750 -119.552284 33,000 123 427 0
2020-01-20 17:55:36 GMT 45.562637 -119.573990 33,000 122 427 64
2020-01-20 17:55:24 GMT 45.576370 -119.604202 33,000 122 426 64
2020-01-20 17:55:13 GMT 45.586929 -119.627312 33,000 123 427 -64
2020-01-20 17:55:05 GMT 45.596802 -119.648941 33,000 122 426 0
2020-01-20 17:54:56 GMT 45.605366 -119.667824 33,000 122 425 0
2020-01-20 17:54:51 GMT 45.610703 -119.679565 33,000 122 425 64
2020-01-20 17:54:42 GMT 45.621147 -119.702568 33,025 122 424 0
2020-01-20 17:54:31 GMT 45.634552 -119.732155 33,000 123 423 64
2020-01-20 17:54:23 GMT 45.641582 -119.747612 33,000 122 423 0
2020-01-20 17:54:07 GMT 45.657688 -119.783112 33,000 122 423 64
2020-01-20 17:54:02 GMT 45.663940 -119.796867 33,000 122 423 -64
2020-01-20 17:53:58 GMT 45.667515 -119.804810 33,000 122 423 -64
2020-01-20 17:53:50 GMT 45.675194 -119.821770 33,000 122 422 64
2020-01-20 17:53:41 GMT 45.686180 -119.846146 33,000 122 422 0
2020-01-20 17:53:32 GMT 45.694427 -119.864456 33,000 122 423 0
2020-01-20 17:53:29 GMT 45.697769 -119.871758 33,000 122 423 64
2020-01-20 17:53:23 GMT 45.706059 -119.890228 33,000 122 423 64
2020-01-20 17:53:19 GMT 45.709213 -119.897217 33,000 122 424 0
2020-01-20 17:53:16 GMT 45.712189 -119.903778 33,000 122 424 -64
2020-01-20 17:53:13 GMT 45.716717 -119.913849 33,000 122 424 64
2020-01-20 17:53:06 GMT 45.721573 -119.924545 33,000 122 424 64
2020-01-20 17:53:01 GMT 45.729473 -119.942139 33,000 122 424 0
2020-01-20 17:52:57 GMT 45.732651 -119.949135 33,000 122 424 -64
2020-01-20 17:52:53 GMT 45.735386 -119.955254 33,000 122 424 -64
2020-01-20 17:52:49 GMT 45.741165 -119.968025 33,000 122 424 -64
2020-01-20 17:52:45 GMT 45.744461 -119.975395 33,000 122 424 -64
2020-01-20 17:52:42 GMT 45.747070 -119.981285 33,000 122 424 -64
2020-01-20 17:52:38 GMT 45.752422 -119.993156 33,000 122 424 0
2020-01-20 17:52:33 GMT 45.758385 -120.006340 33,000 122 424 64
2020-01-20 17:52:27 GMT 45.763596 -120.017929 33,000 122 424 -64
2020-01-20 17:52:22 GMT 45.769180 -120.030457 33,000 122 424 -64
2020-01-20 17:52:15 GMT 45.777191 -120.048347 33,000 122 424 -64
2020-01-20 17:52:12 GMT 45.780029 -120.054611 33,000 122 424 -64
2020-01-20 17:52:04 GMT 45.787811 -120.071991 33,000 122 424 0
2020-01-20 17:52:00 GMT 45.793064 -120.083725 33,000 122 424 -64
2020-01-20 17:51:55 GMT 45.798183 -120.095123 33,000 122 424 0
2020-01-20 17:51:50 GMT 45.802231 -120.104218 33,000 122 424 0
2020-01-20 17:51:45 GMT 45.809006 -120.119286 33,000 122 424 0
2020-01-20 17:51:41 GMT 45.812057 -120.126160 33,000 122 424 0
2020-01-20 17:51:32 GMT 45.821461 -120.147171 33,000 122 424 0
2020-01-20 17:51:22 GMT 45.832581 -120.172073 33,000 122 424 0
2020-01-20 17:51:17 GMT 45.837662 -120.183395 33,000 122 424 0
2020-01-20 17:51:13 GMT 45.843014 -120.195442 33,000 122 424 0
2020-01-20 17:51:06 GMT 45.849976 -120.211060 33,000 122 424 64
2020-01-20 17:51:02 GMT 45.854645 -120.221512 33,000 122 424 0
2020-01-20 17:50:59 GMT 45.858192 -120.229568 33,000 122 424 0
2020-01-20 17:50:53 GMT 45.863590 -120.241653 33,000 122 423 64
2020-01-20 17:50:50 GMT 45.866104 -120.247284 33,000 122 423 64
2020-01-20 17:50:46 GMT 45.870853 -120.257927 33,000 122 424 0
2020-01-20 17:50:40 GMT 45.877396 -120.272629 33,000 122 423 0
2020-01-20 17:50:36 GMT 45.885773 -120.291519 33,000 122 423 0
2020-01-20 17:50:32 GMT 45.885773 -120.291519 33,000 122 423 0
2020-01-20 17:50:28 GMT 45.888748 -120.298149 33,000 122 424 0
2020-01-20 17:50:25 GMT 45.891476 -120.304344 33,000 122 424 0
2020-01-20 17:50:21 GMT 45.896458 -120.315536 33,000 122 423 0
2020-01-20 17:50:16 GMT 45.902618 -120.329437 33,000 122 424 0
2020-01-20 17:50:11 GMT 45.908066 -120.341759 33,000 122 424 64
2020-01-20 17:50:08 GMT 45.911259 -120.348907 33,000 122 423 64
2020-01-20 17:50:05 GMT 45.914612 -120.356461 33,000 122 423 0
2020-01-20 17:50:01 GMT 45.917870 -120.363808 33,000 122 422 0
2020-01-20 17:49:57 GMT 45.923538 -120.376526 33,000 122 419 0
2020-01-20 17:49:52 GMT 45.927750 -120.386040 33,000 122 418 -64
2020-01-20 17:49:48 GMT 45.931503 -120.394478 33,000 122 418 -64
2020-01-20 17:49:44 GMT 45.935669 -120.403923 33,000 122 415 128
2020-01-20 17:49:41 GMT 45.938770 -120.410912 33,000 122 415 448
2020-01-20 17:49:36 GMT 45.944778 -120.424423 32,925 122 415 1088
2020-01-20 17:49:33 GMT 45.946838 -120.429115 32,875 122 415 1088
2020-01-20 17:49:29 GMT 45.951279 -120.439095 32,800 122 415 1024
2020-01-20 17:49:26 GMT 45.958046 -120.454445 32,725 122 415 896
2020-01-20 17:49:23 GMT 45.958046 -120.454445 32,700 122 416 896
2020-01-20 17:49:20 GMT 45.961212 -120.461670 32,650 122 416 896
2020-01-20 17:49:15 GMT 45.966797 -120.474220 32,575 122 416 960
2020-01-20 17:49:11 GMT 45.969265 -120.479782 32,525 122 416 1024
2020-01-20 17:49:08 GMT 45.972748 -120.487732 32,475 122 416 1024
2020-01-20 17:49:02 GMT 45.979385 -120.502800 32,375 122 417 1088
2020-01-20 17:48:57 GMT 45.984787 -120.514931 32,275 122 417 1024
2020-01-20 17:48:54 GMT 45.990921 -120.528931 32,225 122 418 960
2020-01-20 17:48:50 GMT 45.990921 -120.528931 32,150 122 417 896
2020-01-20 17:48:47 GMT 45.994495 -120.536980 32,125 122 417 896
2020-01-20 17:48:43 GMT 45.997803 -120.544464 32,100 122 417 832
2020-01-20 17:48:39 GMT 46.001476 -120.552910 32,050 122 418 832
2020-01-20 17:48:36 GMT 46.005623 -120.562248 32,000 122 417 768
2020-01-20 17:48:33 GMT 46.008926 -120.569801 31,950 122 417 704
2020-01-20 17:48:30 GMT 46.012024 -120.576828 31,925 122 416 704
2020-01-20 17:48:25 GMT 46.017700 -120.589691 31,850 122 416 768
2020-01-20 17:48:22 GMT 46.019852 -120.594582 31,825 122 416 832
2020-01-20 17:48:19 GMT 46.022938 -120.601593 31,775 122 416 896
2020-01-20 17:48:13 GMT 46.029503 -120.616493 31,700 122 416 960
2020-01-20 17:48:09 GMT 46.034180 -120.627205 31,625 122 416 1024
2020-01-20 17:48:02 GMT 46.041420 -120.643684 31,450 122 417 1280
2020-01-20 17:47:56 GMT 46.045937 -120.653984 31,300 122 417 1280
2020-01-20 17:47:53 GMT 46.050659 -120.664787 31,275 122 418 1280
2020-01-20 17:47:44 GMT 46.059677 -120.685349 31,100 122 419 1280
2020-01-20 17:47:40 GMT 46.062881 -120.692642 31,050 122 420 1088
2020-01-20 17:47:35 GMT 46.067722 -120.703766 30,975 122 420 896
2020-01-20 17:47:32 GMT 46.071259 -120.711807 30,925 122 419 832
2020-01-20 17:47:29 GMT 46.074844 -120.719971 30,875 122 419 832
2020-01-20 17:47:26 GMT 46.077358 -120.725670 30,750 122 419 960
2020-01-20 17:47:22 GMT 46.088150 -120.750397 30,750 122 420 1152
2020-01-20 17:47:16 GMT 46.088150 -120.750397 30,650 122 419 1152
2020-01-20 17:47:10 GMT 46.099144 -120.775520 30,525 122 420 1088
2020-01-20 17:47:05 GMT 46.099144 -120.775520 30,325 122 420 1024
2020-01-20 17:47:02 GMT 46.103287 -120.784927 30,400 122 420 960
2020-01-20 17:46:58 GMT 46.106266 -120.791794 30,250 122 417 768
2020-01-20 17:46:54 GMT 46.111202 -120.803192 30,275 122 420 960
2020-01-20 17:46:50 GMT 46.114288 -120.810219 30,200 122 419 768
2020-01-20 17:46:47 GMT 46.117584 -120.817856 30,200 122 419 768
2020-01-20 17:46:43 GMT 46.122746 -120.829628 30,125 122 418 704
2020-01-20 17:46:37 GMT 46.132198 -120.851326 30,025 121 417 832
2020-01-20 17:46:34 GMT 46.132198 -120.851326 30,025 122 417 768
2020-01-20 17:46:26 GMT 46.139282 -120.867561 29,925 121 417 896
2020-01-20 17:46:21 GMT 46.144730 -120.880089 29,850 122 416 832
2020-01-20 17:46:17 GMT 46.148712 -120.889336 29,800 122 415 640
2020-01-20 17:46:14 GMT 46.155624 -120.905144 29,750 122 415 640
2020-01-20 17:46:11 GMT 46.155624 -120.905144 29,725 122 415 576
2020-01-20 17:46:05 GMT 46.160732 -120.916901 29,675 122 413 448
2020-01-20 17:46:02 GMT 46.164276 -120.925041 29,650 122 412 384
2020-01-20 17:45:59 GMT 46.167114 -120.931541 29,650 122 412 256
2020-01-20 17:45:54 GMT 46.174976 -120.949585 29,600 122 407 256
2020-01-20 17:45:51 GMT 46.174976 -120.949585 29,600 122 408 256
2020-01-20 17:45:47 GMT 46.182724 -120.967514 29,575 122 403 256
2020-01-20 17:45:44 GMT 46.182724 -120.967514 29,575 122 404 256
2020-01-20 17:45:41 GMT 46.185314 -120.973412 29,575 122 403 256
2020-01-20 17:45:36 GMT 46.190479 -120.985291 29,550 121 402 256
2020-01-20 17:45:33 GMT 46.192436 -120.989754 29,525 121 400 320
2020-01-20 17:45:30 GMT 46.195770 -120.997459 29,400 122 399 384
2020-01-20 17:45:27 GMT 46.198627 -121.004105 29,500 122 397 384
2020-01-20 17:45:23 GMT 46.203377 -121.015022 29,475 122 396 512
2020-01-20 17:45:19 GMT 46.205933 -121.020836 29,450 121 395 576
2020-01-20 17:45:15 GMT 46.209824 -121.029877 29,400 121 394 704
2020-01-20 17:45:12 GMT 46.213669 -121.038788 29,350 121 393 960
2020-01-20 17:45:09 GMT 46.215958 -121.044083 29,300 121 392 960
2020-01-20 17:45:06 GMT 46.219803 -121.052994 29,250 121 392 960
2020-01-20 17:45:03 GMT 46.221725 -121.057411 29,200 121 392 960
2020-01-20 17:45:00 GMT 46.224060 -121.062775 29,175 121 392 960
2020-01-20 17:44:57 GMT 46.226761 -121.069000 29,125 121 392 960
2020-01-20 17:44:54 GMT 46.230194 -121.077042 29,075 121 391 896
2020-01-20 17:44:51 GMT 46.238983 -121.097336 28,950 121 389 768
2020-01-20 17:44:46 GMT 46.238983 -121.097336 28,950 121 388 768
2020-01-20 17:44:40 GMT 46.243973 -121.108795 28,900 121 388 832
2020-01-20 17:44:36 GMT 46.246994 -121.115891 28,850 121 387 896
2020-01-20 17:44:32 GMT 46.251743 -121.126877 28,775 121 386 960
2020-01-20 17:44:29 GMT 46.254089 -121.132309 28,725 121 386 960
2020-01-20 17:44:25 GMT 46.257423 -121.139992 28,675 121 386 960
2020-01-20 17:44:22 GMT 46.261276 -121.148918 28,600 121 384 1152
2020-01-20 17:44:19 GMT 46.264126 -121.155510 28,600 121 384 1024
2020-01-20 17:44:14 GMT 46.267944 -121.164368 28,475 121 384 1152
2020-01-20 17:44:10 GMT 46.274323 -121.179131 28,350 121 384 1152
2020-01-20 17:44:04 GMT 46.277115 -121.185699 28,300 121 384 1152
2020-01-20 17:44:01 GMT 46.281349 -121.195541 28,200 121 384 1088
2020-01-20 17:43:57 GMT 46.284988 -121.203987 28,150 121 383 1088
2020-01-20 17:43:54 GMT 46.286983 -121.208588 28,100 121 383 960
2020-01-20 17:43:50 GMT 46.293961 -121.224815 28,025 121 381 1024
2020-01-20 17:43:47 GMT 46.296761 -121.231316 27,950 121 382 960
2020-01-20 17:43:40 GMT 46.299911 -121.238686 27,900 121 381 1088
2020-01-20 17:43:37 GMT 46.302719 -121.245117 27,850 121 381 1088
2020-01-20 17:43:34 GMT 46.306274 -121.253426 27,750 121 381 1216
2020-01-20 17:43:30 GMT 46.309700 -121.261391 27,700 121 381 1344
2020-01-20 17:43:26 GMT 46.315750 -121.275398 27,550 121 381 1408
2020-01-20 17:43:19 GMT 46.319477 -121.284050 27,375 121 381 1408
2020-01-20 17:43:16 GMT 46.322411 -121.290985 27,375 121 382 1344
2020-01-20 17:43:13 GMT 46.325714 -121.298676 27,300 121 382 1344
2020-01-20 17:43:10 GMT 46.328369 -121.304924 27,225 121 382 1344
2020-01-20 17:43:05 GMT 46.333584 -121.317078 27,125 121 382 1408
2020-01-20 17:43:02 GMT 46.335396 -121.321335 27,050 121 382 1472
2020-01-20 17:42:58 GMT 46.338749 -121.329163 26,975 121 383 1600
2020-01-20 17:42:55 GMT 46.341980 -121.336761 26,825 121 383 1856
2020-01-20 17:42:52 GMT 46.345173 -121.344131 26,775 121 384 1920
2020-01-20 17:42:49 GMT 46.347565 -121.349823 26,675 121 385 2048
2020-01-20 17:42:43 GMT 46.353928 -121.364693 26,450 121 386 2304
2020-01-20 17:42:39 GMT 46.357681 -121.373466 26,350 121 387 2304
2020-01-20 17:42:33 GMT 46.362072 -121.383614 26,150 121 389 1792
2020-01-20 17:42:30 GMT 46.367752 -121.396935 25,975 121 390 832
2020-01-20 17:42:24 GMT 46.371849 -121.406479 25,950 121 388 896
2020-01-20 17:42:20 GMT 46.375713 -121.415543 25,875 121 388 1216
2020-01-20 17:42:17 GMT 46.377045 -121.418617 25,850 121 389 1216
2020-01-20 17:42:13 GMT 46.382088 -121.430580 25,725 121 389 1408
2020-01-20 17:42:10 GMT 46.384964 -121.437309 25,650 121 390 1408
2020-01-20 17:42:07 GMT 46.387070 -121.442184 25,500 121 390 1344
2020-01-20 17:42:04 GMT 46.389862 -121.448830 25,500 121 390 1152
2020-01-20 17:42:01 GMT 46.393494 -121.457291 25,450 121 390 1088
2020-01-20 17:41:58 GMT 46.396523 -121.464363 25,400 121 390 1024
2020-01-20 17:41:55 GMT 46.399292 -121.470802 25,350 121 389 896
2020-01-20 17:41:51 GMT 46.401581 -121.476166 25,325 121 388 832
2020-01-20 17:41:48 GMT 46.405014 -121.484268 25,275 121 388 832
2020-01-20 17:41:45 GMT 46.407459 -121.490044 25,250 121 388 832
2020-01-20 17:41:41 GMT 46.412521 -121.501953 25,175 121 385 1088
2020-01-20 17:41:38 GMT 46.415279 -121.508377 25,125 121 386 1024
2020-01-20 17:41:33 GMT 46.419422 -121.518127 25,050 121 385 1088
2020-01-20 17:41:29 GMT 46.425385 -121.532135 24,925 121 384 1024
2020-01-20 17:41:23 GMT 46.429321 -121.541412 24,875 121 383 1024
2020-01-20 17:41:20 GMT 46.431198 -121.545837 24,825 121 383 1024
2020-01-20 17:41:16 GMT 46.436005 -121.557159 24,750 121 383 1152
2020-01-20 17:41:12 GMT 46.438980 -121.564125 24,675 121 382 1152
2020-01-20 17:41:08 GMT 46.443420 -121.574509 24,600 121 382 1024
2020-01-20 17:40:59 GMT 46.454338 -121.600319 24,400 121 381 1088
2020-01-20 17:40:55 GMT 46.454338 -121.600319 24,400 121 381 1152
2020-01-20 17:40:49 GMT 46.460083 -121.613831 24,125 121 381 1344
2020-01-20 17:40:45 GMT 46.464523 -121.624275 24,150 121 381 1344
2020-01-20 17:40:39 GMT 46.470261 -121.637810 24,000 121 381 1344
2020-01-20 17:40:36 GMT 46.472580 -121.643234 23,950 121 381 1344
2020-01-20 17:40:33 GMT 46.473938 -121.646461 23,925 121 381 1344
2020-01-20 17:40:30 GMT 46.478165 -121.656502 23,825 121 381 1280
2020-01-20 17:40:27 GMT 46.480408 -121.661728 23,775 121 381 1216
2020-01-20 17:40:24 GMT 46.484070 -121.670433 23,700 121 381 1152
2020-01-20 17:40:21 GMT 46.485714 -121.674339 23,675 121 380 1152
2020-01-20 17:40:16 GMT 46.493721 -121.693291 23,525 121 379 1216
2020-01-20 17:40:13 GMT 46.493721 -121.693291 23,500 121 379 1280
2020-01-20 17:40:10 GMT 46.495583 -121.697617 23,450 121 379 1280
2020-01-20 17:40:07 GMT 46.499084 -121.705940 23,375 121 378 1280
2020-01-20 17:40:01 GMT 46.503525 -121.716393 23,275 121 378 1216
2020-01-20 17:39:56 GMT 46.508560 -121.728378 23,175 121 376 1152
2020-01-20 17:39:51 GMT 46.513180 -121.739296 23,075 121 377 1152
2020-01-20 17:39:46 GMT 46.518627 -121.752205 22,975 121 376 1152
2020-01-20 17:39:43 GMT 46.520966 -121.757858 22,925 121 376 1216
2020-01-20 17:39:40 GMT 46.523529 -121.763885 22,850 121 375 1280
2020-01-20 17:39:36 GMT 46.527657 -121.773834 22,650 121 375 1536
2020-01-20 17:39:32 GMT 46.533646 -121.788002 22,600 121 375 1536
2020-01-20 17:39:24 GMT 46.537434 -121.797043 22,500 121 375 1536
2020-01-20 17:39:21 GMT 46.542461 -121.809128 22,375 121 376 1472
2020-01-20 17:39:14 GMT 46.547489 -121.821007 22,225 121 376 1408
2020-01-20 17:39:11 GMT 46.549351 -121.825470 22,125 121 376 1408
2020-01-20 17:39:08 GMT 46.552048 -121.831947 22,100 121 376 1408
2020-01-20 17:39:04 GMT 46.556427 -121.842499 21,975 121 375 1344
2020-01-20 17:39:01 GMT 46.561752 -121.855263 21,900 121 375 1408
2020-01-20 17:38:58 GMT 46.561752 -121.855263 21,850 121 375 1344
2020-01-20 17:38:53 GMT 46.566055 -121.865578 21,750 121 375 1344
2020-01-20 17:38:49 GMT 46.569901 -121.874886 21,650 121 374 1280
2020-01-20 17:38:41 GMT 46.576035 -121.889694 21,500 120 374 1344
2020-01-20 17:38:38 GMT 46.578918 -121.896591 21,425 120 374 1280
2020-01-20 17:38:33 GMT 46.584183 -121.909523 21,325 120 372 1088
2020-01-20 17:38:30 GMT 46.588596 -121.920158 21,250 123 366 896
2020-01-20 17:38:27 GMT 46.588596 -121.920158 21,225 121 372 1088
2020-01-20 17:38:23 GMT 46.591278 -121.926674 21,175 121 371 1024
2020-01-20 17:38:19 GMT 46.595436 -121.936363 21,100 122 368 896
2020-01-20 17:38:16 GMT 46.597778 -121.941811 21,075 132 358 1280
2020-01-20 17:38:11 GMT 46.603630 -121.954559 20,975 126 363 960
2020-01-20 17:38:07 GMT 46.608261 -121.963249 20,925 131 359 1216
2020-01-20 17:38:02 GMT 46.612522 -121.970009 20,800 135 356 1344
2020-01-20 17:37:59 GMT 46.616180 -121.975105 20,750 137 355 1408
2020-01-20 17:37:56 GMT 46.621460 -121.981544 20,650 144 350 1280
2020-01-20 17:37:52 GMT 46.624626 -121.984909 20,575 146 348 1216
2020-01-20 17:37:49 GMT 46.629517 -121.989441 20,500 152 345 1088
2020-01-20 17:37:44 GMT 46.637100 -121.995338 20,425 153 343 1024
2020-01-20 17:37:41 GMT 46.644104 -121.999557 20,375 163 336 704
2020-01-20 17:37:35 GMT 46.657150 -122.005585 20,275 163 335 768
2020-01-20 17:37:31 GMT 46.657150 -122.005585 20,250 163 334 832
2020-01-20 17:37:28 GMT 46.660721 -122.007126 20,225 163 333 896
2020-01-20 17:37:24 GMT 46.667221 -122.009941 20,150 163 330 1280
2020-01-20 17:37:20 GMT 46.676205 -122.013885 19,900 163 330 1472
2020-01-20 17:37:13 GMT 46.683331 -122.017044 19,875 163 329 1600
2020-01-20 17:37:07 GMT 46.691521 -122.020615 19,725 163 329 1536
2020-01-20 17:37:02 GMT 46.699669 -122.024185 19,600 163 329 1536
2020-01-20 17:36:55 GMT 46.707001 -122.027359 19,475 163 329 1536
2020-01-20 17:36:51 GMT 46.715652 -122.031174 19,325 163 329 1600
2020-01-20 17:36:48 GMT 46.719818 -122.032982 19,250 163 329 1600
2020-01-20 17:36:39 GMT 46.731186 -122.037987 19,025 163 329 1856
2020-01-20 17:36:35 GMT 46.739044 -122.041359 18,850 163 329 1856
2020-01-20 17:36:32 GMT 46.742729 -122.042999 18,775 163 329 1856
2020-01-20 17:36:29 GMT 46.747787 -122.045242 18,675 163 329 1984
2020-01-20 17:36:24 GMT 46.753601 -122.047791 18,550 163 329 2048
2020-01-20 17:36:20 GMT 46.758774 -122.050064 18,100 163 331 2112
2020-01-20 17:36:16 GMT 46.766373 -122.053413 18,225 163 332 2240
2020-01-20 17:36:10 GMT 46.774155 -122.056831 18,050 163 333 2240
2020-01-20 17:36:07 GMT 46.778576 -122.058792 17,925 163 334 2176
2020-01-20 17:36:02 GMT 46.785965 -122.061989 17,800 163 335 2048
2020-01-20 17:35:57 GMT 46.794636 -122.065796 17,675 163 336 1920
2020-01-20 17:35:52 GMT 46.800934 -122.068558 17,450 163 336 1728
2020-01-20 17:35:49 GMT 46.805389 -122.070534 17,350 163 336 1600
2020-01-20 17:35:46 GMT 46.809860 -122.072510 17,300 163 335 1536
2020-01-20 17:35:42 GMT 46.817261 -122.075752 17,150 163 335 1536
2020-01-20 17:35:39 GMT 46.821121 -122.077469 17,100 163 334 1472
2020-01-20 17:35:34 GMT 46.827919 -122.080421 17,000 163 333 1344
2020-01-20 17:35:31 GMT 46.832932 -122.082687 16,925 163 332 1344
2020-01-20 17:35:27 GMT 46.837929 -122.084885 16,850 163 331 1216
2020-01-20 17:35:21 GMT 46.846436 -122.088585 16,725 163 329 1216
2020-01-20 17:35:18 GMT 46.852249 -122.091202 16,600 163 326 1344
2020-01-20 17:35:14 GMT 46.861542 -122.095284 16,475 163 325 1600
2020-01-20 17:35:06 GMT 46.869350 -122.098671 16,325 163 324 1600
2020-01-20 17:35:01 GMT 46.876556 -122.101845 16,200 163 323 1472
2020-01-20 17:34:58 GMT 46.879734 -122.103249 16,150 163 322 1408
2020-01-20 17:34:49 GMT 46.891434 -122.108437 15,925 163 319 1344
2020-01-20 17:34:46 GMT 46.897934 -122.111343 15,875 163 318 1344
2020-01-20 17:34:39 GMT 46.906406 -122.115005 15,700 163 317 1408
2020-01-20 17:34:34 GMT 46.912857 -122.117912 15,650 163 315 1408
2020-01-20 17:34:29 GMT 46.920639 -122.121346 15,525 163 313 1472
2020-01-20 17:34:24 GMT 46.927589 -122.124374 15,375 163 311 1536
2020-01-20 17:34:20 GMT 46.934326 -122.127319 15,250 163 309 1472
2020-01-20 17:34:13 GMT 46.942905 -122.131134 15,100 163 307 1728
2020-01-20 17:34:08 GMT 46.950119 -122.134323 14,950 163 304 1856
2020-01-20 17:34:02 GMT 46.956161 -122.137001 14,825 163 304 1792
2020-01-20 17:33:56 GMT 46.965363 -122.141052 14,600 163 304 1920
2020-01-20 17:33:53 GMT 46.970463 -122.143318 14,475 163 303 1856
2020-01-20 17:33:46 GMT 46.979187 -122.147163 14,275 163 303 1920
2020-01-20 17:33:42 GMT 46.984428 -122.149513 14,150 163 303 1920
2020-01-20 17:33:35 GMT 46.993286 -122.153412 13,925 163 302 1984
2020-01-20 17:33:31 GMT 46.999146 -122.156021 13,800 163 302 1792
2020-01-20 17:33:25 GMT 47.006561 -122.159317 13,625 163 300 1920
2020-01-20 17:33:21 GMT 47.012779 -122.162056 13,475 163 299 1984
2020-01-20 17:33:15 GMT 47.020832 -122.165642 13,275 163 298 1984
2020-01-20 17:33:10 GMT 47.027164 -122.168465 13,100 163 298 1984
2020-01-20 17:33:04 GMT 47.034805 -122.171814 12,925 163 297 1728
2020-01-20 17:33:01 GMT 47.039871 -122.174095 12,825 163 296 1536
2020-01-20 17:32:58 GMT 47.042130 -122.175041 12,775 163 295 1472
2020-01-20 17:32:53 GMT 47.050461 -122.178749 12,625 163 291 1664
2020-01-20 17:32:48 GMT 47.055935 -122.181206 12,525 163 291 1664
2020-01-20 17:32:43 GMT 47.063194 -122.184380 12,350 163 289 1920
2020-01-20 17:32:38 GMT 47.069092 -122.187057 12,200 163 289 1984
2020-01-20 17:32:33 GMT 47.076042 -122.190079 11,975 163 288 1984
2020-01-20 17:32:29 GMT 47.080856 -122.192276 11,875 163 288 1984
2020-01-20 17:32:21 GMT 47.090801 -122.196632 11,625 163 287 2176
2020-01-20 17:32:16 GMT 47.096603 -122.199280 11,525 163 287 2176
2020-01-20 17:32:12 GMT 47.102486 -122.201843 11,300 163 287 1984
2020-01-20 17:32:06 GMT 47.110291 -122.205322 11,100 163 286 1792
2020-01-20 17:32:00 GMT 47.115707 -122.207756 11,000 163 285 1792
2020-01-20 17:31:55 GMT 47.124271 -122.211563 10,850 163 284 1792
2020-01-20 17:31:47 GMT 47.133766 -122.215790 10,600 163 278 960
2020-01-20 17:31:44 GMT 47.138100 -122.217690 10,575 163 276 832
2020-01-20 17:31:41 GMT 47.141636 -122.219238 10,525 163 272 896
2020-01-20 17:31:38 GMT 47.145218 -122.220840 10,475 163 269 1280
2020-01-20 17:31:33 GMT 47.150665 -122.223251 10,375 163 267 1792
2020-01-20 17:31:29 GMT 47.154949 -122.225151 10,250 163 265 2368
2020-01-20 17:31:25 GMT 47.160164 -122.227478 10,075 163 265 2496
2020-01-20 17:31:22 GMT 47.163620 -122.229012 9,950 163 266 2496
2020-01-20 17:31:18 GMT 47.168335 -122.231071 9,775 163 266 2496
2020-01-20 17:31:13 GMT 47.174881 -122.234024 9,550 163 266 2560
2020-01-20 17:31:09 GMT 47.178772 -122.235741 9,425 163 266 2560
2020-01-20 17:31:04 GMT 47.184559 -122.238327 8,900 163 265 2368
2020-01-20 17:30:58 GMT 47.191956 -122.241646 8,950 162 265 2560
2020-01-20 17:30:54 GMT 47.196800 -122.243820 8,750 162 266 2560
2020-01-20 17:30:50 GMT 47.201797 -122.246040 8,600 163 266 2432
2020-01-20 17:30:43 GMT 47.209900 -122.249680 8,300 163 265 2560
2020-01-20 17:30:37 GMT 47.216995 -122.252769 8,050 163 265 2496
2020-01-20 17:30:31 GMT 47.222359 -122.255226 7,900 163 265 2304
2020-01-20 17:30:28 GMT 47.227341 -122.257439 7,700 163 264 2176
2020-01-20 17:30:25 GMT 47.229721 -122.258469 7,700 163 264 2176
2020-01-20 17:30:21 GMT 47.234802 -122.260735 7,500 163 263 2176
2020-01-20 17:30:17 GMT 47.242981 -122.264313 7,250 163 261 2176
2020-01-20 17:30:11 GMT 47.254013 -122.269241 6,925 163 259 2304
2020-01-20 17:30:05 GMT 47.254013 -122.269241 6,875 163 257 2368
2020-01-20 17:29:59 GMT 47.259506 -122.271637 6,675 163 257 2368
2020-01-20 17:29:54 GMT 47.265793 -122.274384 6,500 163 256 2368
2020-01-20 17:29:50 GMT 47.270866 -122.276634 6,300 163 254 2368
2020-01-20 17:29:45 GMT 47.276459 -122.279068 6,100 163 253 2496
2020-01-20 17:29:38 GMT 47.283062 -122.281914 5,850 163 253 2496
2020-01-20 17:29:33 GMT 47.288414 -122.284309 5,650 163 252 2560
2020-01-20 17:29:29 GMT 47.294907 -122.287102 5,400 163 251 2816
2020-01-20 17:29:23 GMT 47.301590 -122.290054 4,825 163 252 3072
2020-01-20 17:29:17 GMT 47.307175 -122.292549 4,850 163 252 2624
2020-01-20 17:29:12 GMT 47.314499 -122.295891 4,475 161 247 2304
2020-01-20 17:29:08 GMT 47.318069 -122.297539 4,475 162 250 2240
2020-01-20 17:29:00 GMT 47.326122 -122.301422 4,125 161 247 2240
2020-01-20 17:28:57 GMT 47.329834 -122.303238 4,075 162 245 1984
2020-01-20 17:28:50 GMT 47.337898 -122.306496 3,850 167 239 1600
2020-01-20 17:28:46 GMT 47.341297 -122.307480 3,775 170 236 1408
2020-01-20 17:28:42 GMT 47.349197 -122.308937 3,650 176 225 896
2020-01-20 17:28:36 GMT 47.352127 -122.309212 3,600 178 221 960
2020-01-20 17:28:28 GMT 47.359726 -122.309349 3,500 179 209 704
2020-01-20 17:28:25 GMT 47.362617 -122.309380 3,475 180 205 832
2020-01-20 17:28:15 GMT 47.372726 -122.309349 3,150 181 194 2368
2020-01-20 17:28:06 GMT 47.380775 -122.309311 2,750 181 193 2688
2020-01-20 17:27:54 GMT 47.391529 -122.309242 2,275 181 192 2112
2020-01-20 17:27:48 GMT 47.395981 -122.309212 1,825 176 165 640
2020-01-20 17:27:42 GMT 47.400745 -122.309242 1,975 179 187 1344
2020-01-20 17:27:34 GMT 47.408798 -122.309456 1,875 177 172 576
2020-01-20 17:27:31 GMT 47.409622 -122.309486 1,850 177 171 576
2020-01-20 17:27:22 GMT 47.417450 -122.310242 1,675 174 156 1792
2020-01-20 17:27:11 GMT 47.425045 -122.311211 1,400 177 155 2048
2020-01-20 17:27:01 GMT 47.432739 -122.311272 950 181 158 1728
2020-01-20 17:26:55 GMT 47.440521 -122.311203 650 180 157 2624
2020-01-20 17:26:50 GMT 47.440521 -122.311203 550 180 157 2624
2020-01-20 17:26:38 GMT 47.448944 -122.311134 375 181 149 0
2020-01-20 17:26:29 GMT 47.454979 -122.311073 400 181 115 -128
2020-01-20 17:26:17 GMT 47.459747 -122.311066 400 181 77 -64
2020-01-20 17:26:06 GMT 47.462521 -122.311020 0 180 26
2020-01-20 17:25:57 GMT 47.463242 -122.310951 0 196 14
2020-01-20 17:25:46 GMT 47.463661 -122.310204 0 264 14
2020-01-20 17:25:36 GMT 47.463673 -122.309242 0 270 15
2020-01-20 17:25:24 GMT 47.463661 -122.308151 0 270 15
2020-01-20 17:25:19 GMT 47.463661 -122.307602 0 264 13
2020-01-20 17:25:12 GMT 47.463776 -122.306953 0 253 14
2020-01-20 17:25:09 GMT 47.463776 -122.306778 0 281 14
2020-01-20 17:25:03 GMT 47.463428 -122.306198 0 348 13
2020-01-20 17:24:54 GMT 47.462963 -122.306160 0 0 18
2020-01-20 17:24:43 GMT 47.462032 -122.306160 0 0 19
2020-01-20 17:24:36 GMT 47.461372 -122.306175 0 0 23
2020-01-20 17:24:31 GMT 47.460960 -122.306175 0 0 22
2020-01-20 17:24:27 GMT 47.460495 -122.306175 0 0 22
2020-01-20 17:24:22 GMT 47.459984 -122.306175 0 0 22
2020-01-20 17:24:19 GMT 47.459644 -122.306190 0 0 22
2020-01-20 17:24:16 GMT 47.459278 -122.306190 0 0 22
2020-01-20 17:24:11 GMT 47.458946 -122.306198 0 0 22
2020-01-20 17:24:06 GMT 47.458340 -122.306190 0 0 22
2020-01-20 17:24:01 GMT 47.457870 -122.306206 0 0 22
2020-01-20 17:23:50 GMT 47.456886 -122.306206 0 0 22
2020-01-20 17:23:40 GMT 47.455822 -122.306229 0 0 22
2020-01-20 17:23:28 GMT 47.454700 -122.306229 0 0 21
2020-01-20 17:23:18 GMT 47.453758 -122.306252 0 0 22
2020-01-20 17:23:07 GMT 47.452583 -122.306259 0 0 22
2020-01-20 17:22:52 GMT 47.451183 -122.306267 0 0 23
2020-01-20 17:22:47 GMT 47.450546 -122.306267 0 0 22
2020-01-20 17:22:36 GMT 47.449551 -122.306274 0 0 21
2020-01-20 17:22:24 GMT 47.448441 -122.306290 0 0 19
2020-01-20 17:22:11 GMT 47.447414 -122.306297 0 0 17
2020-01-20 17:22:03 GMT 47.446793 -122.306313 0 0 15
2020-01-20 17:21:54 GMT 47.446220 -122.306313 0 0 14
2020-01-20 17:21:43 GMT 47.445591 -122.306313 0 0 12
2020-01-20 17:21:33 GMT 47.445053 -122.306320 0 0 11
2020-01-20 17:21:22 GMT 47.444515 -122.306267 0 340 12
2020-01-20 17:21:09 GMT 47.444023 -122.305763 0 315 7
2020-01-20 17:19:46 GMT 47.443714 -122.305435 0 0 0
2020-01-20 17:19:20 GMT 47.443726 -122.305443 0 0 0
2020-01-20 17:18:59 GMT 47.443737 -122.305435 0 0 2
2020-01-20 17:18:50 GMT 47.443817 -122.305420 0 0 3
2020-01-20 17:18:44 GMT 47.443874 -122.305435 0 0 2
2020-01-20 17:18:28 GMT 47.444000 -122.305435 0 354 2
2020-01-20 17:18:23 GMT 47.444061 -122.305443 0 2 2
2020-01-20 17:18:11 GMT 47.444122 -122.305405 0 28 3
2020-01-20 17:18:02 GMT 47.444195 -122.305298 0 45 2
2020-01-20 17:17:51 GMT 47.444225 -122.305161 0 84 3
2020-01-20 17:17:39 GMT 47.444225 -122.305016 0 98 2
2020-01-20 17:17:30 GMT 47.444191 -122.304909 0 126 2
2020-01-20 17:16:55 GMT 47.444084 -122.304749 0 135 0
2020-01-20 17:16:45 GMT 47.444080 -122.304764 0 135 0

Making use of Plane Finder data

You are free to use the raw flight data, aircraft information and images provided in this report for your own purposes provided the data is correctly attributed to Plane Finder. We ask that you please credit Plane Finder and link to planefinder.net in close proximity to the content.

Optionally one of the following logos (no smaller then 150x24px) can be used and must link to planefinder.net

Embedding the Plane Finder map

You are welcome to embed the Plane Finder playback map on your website to offer visitors a more interactive experience. We suggest using the following HTML code:

<iframe src="//planefinder.net/data/report/AS2712-N623QX-7700-squawk-2020-01-20/map" width="800" height="600" seamless="seamless"></iframe>

Where our data comes from

Plane Finder has a global network of data feeds and antenna radars that receive data broadcast directly from aircraft. The primary technologies used are ADS-B and MLAT. We also show feeds from the FAA and a FLARM glider feed.

Click here to find out more about the Plane Finder network.

How we collect our data